createdAt,value
2018-09-17T00:00:52.789Z,61.11
2018-09-17T00:01:52.790Z,61.11
2018-09-17T00:02:52.778Z,61.11
2018-09-17T00:03:52.760Z,61.21
2018-09-17T00:04:53.109Z,61.40
2018-09-17T00:05:52.779Z,62.07
2018-09-17T00:06:52.732Z,61.60
2018-09-17T00:07:52.717Z,61.60
2018-09-17T00:08:52.706Z,61.88
2018-09-17T00:09:52.698Z,61.85
2018-09-17T00:10:52.694Z,61.66
2018-09-17T00:11:52.672Z,61.69
2018-09-17T00:12:52.654Z,61.57
2018-09-17T00:13:52.642Z,61.79
2018-09-17T00:14:52.702Z,61.66
2018-09-17T00:15:52.623Z,62.33
2018-09-17T00:16:52.604Z,62.33
2018-09-17T00:17:52.607Z,62.62
2018-09-17T00:18:52.592Z,62.23
2018-09-17T00:19:52.575Z,62.14
2018-09-17T00:20:52.595Z,61.94
2018-09-17T00:21:52.553Z,61.66
2018-09-17T00:22:52.549Z,62.14
2018-09-17T00:23:52.531Z,62.33
2018-09-17T00:24:52.532Z,61.85
2018-09-17T00:25:52.537Z,61.66
2018-09-17T00:26:52.495Z,61.47
2018-09-17T00:27:52.488Z,61.66
2018-09-17T00:28:52.477Z,61.85
2018-09-17T00:29:52.462Z,61.85
2018-09-17T00:30:52.514Z,61.85
2018-09-17T00:31:52.431Z,61.85
2018-09-17T00:32:52.428Z,61.57
2018-09-17T00:33:52.413Z,61.85
2018-09-17T00:34:52.408Z,61.85
2018-09-17T00:35:52.389Z,61.85
2018-09-17T00:36:52.400Z,61.85
2018-09-17T00:37:52.371Z,61.66
2018-09-17T00:38:52.361Z,61.66
2018-09-17T00:39:52.344Z,61.76
2018-09-17T00:40:52.364Z,61.57
2018-09-17T00:41:52.318Z,61.47
2018-09-17T00:42:52.311Z,61.47
2018-09-17T00:43:52.296Z,61.37
2018-09-17T00:44:52.274Z,61.47
2018-09-17T00:45:52.277Z,61.66
2018-09-17T00:46:52.292Z,61.47
2018-09-17T00:47:52.254Z,61.85
2018-09-17T00:48:52.241Z,61.57
2018-09-17T00:49:52.217Z,61.66
2018-09-17T00:50:52.261Z,61.76
2018-09-17T00:51:52.203Z,61.66
2018-09-17T00:52:52.269Z,61.94
2018-09-17T00:53:52.178Z,62.04
2018-09-17T00:54:52.171Z,62.04
2018-09-17T00:55:52.152Z,61.94
2018-09-17T00:56:52.130Z,61.85
2018-09-17T00:57:52.217Z,61.57
2018-09-17T00:58:52.156Z,61.66
2018-09-17T00:59:52.112Z,61.57
2018-09-17T01:00:52.095Z,61.85
2018-09-17T01:01:52.085Z,61.94
2018-09-17T01:02:52.069Z,62.23
2018-09-17T01:03:52.082Z,61.66
2018-09-17T01:04:52.046Z,61.57
2018-09-17T01:05:52.030Z,62.11
2018-09-17T01:06:52.022Z,61.82
2018-09-17T01:07:52.016Z,62.20
2018-09-17T01:08:52.028Z,62.40
2018-09-17T01:09:51.988Z,62.01
2018-09-17T01:10:51.984Z,62.20
2018-09-17T01:11:51.969Z,61.91
2018-09-17T01:12:51.948Z,61.82
2018-09-17T01:13:51.936Z,62.01
2018-09-17T01:14:51.932Z,62.01
2018-09-17T01:15:51.908Z,61.72
2018-09-17T01:16:51.908Z,62.20
2018-09-17T01:17:51.884Z,62.20
2018-09-17T01:18:51.869Z,62.40
2018-09-17T01:19:51.865Z,62.30
2018-09-17T01:20:51.855Z,62.11
2018-09-17T01:21:51.853Z,62.11
2018-09-17T01:22:51.837Z,62.11
2018-09-17T01:23:51.828Z,62.49
2018-09-17T01:24:51.807Z,62.20
2018-09-17T01:25:51.800Z,61.91
2018-09-17T01:26:51.785Z,62.01
2018-09-17T01:27:51.773Z,62.68
2018-09-17T01:28:51.758Z,62.40
2018-09-17T01:29:51.756Z,62.30
2018-09-17T01:30:51.731Z,62.77
2018-09-17T01:31:51.713Z,62.68
2018-09-17T01:32:51.705Z,62.59
2018-09-17T01:33:51.726Z,62.40
2018-09-17T01:34:51.695Z,61.91
2018-09-17T01:35:51.676Z,61.82
2018-09-17T01:36:51.663Z,62.30
2018-09-17T01:37:51.642Z,62.01
2018-09-17T01:38:51.640Z,62.68
2018-09-17T01:39:51.654Z,62.11
2018-09-17T01:40:51.610Z,62.30
2018-09-17T01:41:51.606Z,61.91
2018-09-17T01:42:51.584Z,62.30
2018-09-17T01:43:51.582Z,62.11
2018-09-17T01:44:51.601Z,62.40
2018-09-17T01:45:51.552Z,61.91
2018-09-17T01:46:51.617Z,62.01
2018-09-17T01:47:51.532Z,62.30
2018-09-17T01:48:51.513Z,62.30
2018-09-17T01:49:51.501Z,62.68
2018-09-17T01:50:51.487Z,62.77
2018-09-17T01:51:51.476Z,62.77
2018-09-17T01:52:51.499Z,62.97
2018-09-17T01:53:51.456Z,62.94
2018-09-17T01:54:51.444Z,62.87
2018-09-17T01:55:51.428Z,62.20
2018-09-17T01:56:51.425Z,62.40
2018-09-17T01:57:51.433Z,62.40
2018-09-17T01:58:51.390Z,62.30
2018-09-17T01:59:51.383Z,62.30
2018-09-17T02:00:51.367Z,62.20
2018-09-17T02:01:51.362Z,62.87
2018-09-17T02:02:51.373Z,62.77
2018-09-17T02:03:51.331Z,62.87
2018-09-17T02:04:51.314Z,62.84
2018-09-17T02:05:51.298Z,62.84
2018-09-17T02:06:51.298Z,62.65
2018-09-17T02:07:51.366Z,62.84
2018-09-17T02:08:51.355Z,62.84
2018-09-17T02:09:51.336Z,62.74
2018-09-17T02:10:51.237Z,63.13
2018-09-17T02:11:51.232Z,62.55
2018-09-17T02:12:51.440Z,62.55
2018-09-17T02:13:51.215Z,62.46
2018-09-17T02:14:51.202Z,62.84
2018-09-17T02:15:51.180Z,62.74
2018-09-17T02:16:51.169Z,62.65
2018-09-17T02:17:51.472Z,62.55
2018-09-17T02:18:51.136Z,63.03
2018-09-17T02:19:51.141Z,62.74
2018-09-17T02:20:51.114Z,62.74
2018-09-17T02:21:51.105Z,62.55
2018-09-17T02:22:51.097Z,62.74
2018-09-17T02:23:51.119Z,62.94
2018-09-17T02:24:51.074Z,63.03
2018-09-17T02:25:51.050Z,62.84
2018-09-17T02:26:51.048Z,63.03
2018-09-17T02:27:51.043Z,63.23
2018-09-17T02:28:51.025Z,63.13
2018-09-17T02:29:51.016Z,63.32
2018-09-17T02:30:50.994Z,63.32
2018-09-17T02:31:50.982Z,63.13
2018-09-17T02:32:51.002Z,63.32
2018-09-17T02:33:50.959Z,63.13
2018-09-17T02:34:50.939Z,63.13
2018-09-17T02:35:50.925Z,63.03
2018-09-17T02:36:50.953Z,63.03
2018-09-17T02:37:50.909Z,62.94
2018-09-17T02:38:50.897Z,63.13
2018-09-17T02:39:50.885Z,63.13
2018-09-17T02:40:50.900Z,62.94
2018-09-17T02:41:50.869Z,62.94
2018-09-17T02:42:50.851Z,63.03
2018-09-17T02:43:50.828Z,63.23
2018-09-17T02:44:50.829Z,63.03
2018-09-17T02:45:50.801Z,63.13
2018-09-17T02:46:51.005Z,62.74
2018-09-17T02:47:50.786Z,63.03
2018-09-17T02:48:50.779Z,63.32
2018-09-17T02:49:50.767Z,63.32
2018-09-17T02:50:50.746Z,63.03
2018-09-17T02:51:50.732Z,63.03
2018-09-17T02:52:50.755Z,63.13
2018-09-17T02:53:50.714Z,62.84
2018-09-17T02:54:50.690Z,63.03
2018-09-17T02:55:50.682Z,63.13
2018-09-17T02:56:50.934Z,62.94
2018-09-17T02:57:50.672Z,62.46
2018-09-17T02:58:50.655Z,62.55
2018-09-17T02:59:50.638Z,63.03
2018-09-17T03:00:50.621Z,63.23
2018-09-17T03:01:50.612Z,62.94
2018-09-17T03:02:50.631Z,63.32
2018-09-17T03:03:50.588Z,63.13
2018-09-17T03:04:50.603Z,62.84
2018-09-17T03:05:50.555Z,62.65
2018-09-17T03:06:50.540Z,62.84
2018-09-17T03:07:50.536Z,62.65
2018-09-17T03:08:50.531Z,63.13
2018-09-17T03:09:50.563Z,62.46
2018-09-17T03:10:50.502Z,62.84
2018-09-17T03:11:50.492Z,63.03
2018-09-17T03:12:50.480Z,62.55
2018-09-17T03:13:50.465Z,62.55
2018-09-17T03:14:50.453Z,63.23
2018-09-17T03:15:50.514Z,62.55
2018-09-17T03:16:50.433Z,62.65
2018-09-17T03:17:50.418Z,62.74
2018-09-17T03:18:50.400Z,63.32
2018-09-17T03:19:50.394Z,63.32
2018-09-17T03:20:50.374Z,63.03
2018-09-17T03:21:50.367Z,63.32
2018-09-17T03:22:50.355Z,63.32
2018-09-17T03:23:50.334Z,63.42
2018-09-17T03:24:50.325Z,63.70
2018-09-17T03:25:50.301Z,63.13
2018-09-17T03:26:50.308Z,63.23
2018-09-17T03:27:50.286Z,63.13
2018-09-17T03:28:50.277Z,63.23
2018-09-17T03:29:50.266Z,63.13
2018-09-17T03:30:50.255Z,63.13
2018-09-17T03:31:50.225Z,63.51
2018-09-17T03:32:50.223Z,63.51
2018-09-17T03:33:50.238Z,63.51
2018-09-17T03:34:50.962Z,63.32
2018-09-17T03:35:50.184Z,63.13
2018-09-17T03:36:50.180Z,63.13
2018-09-17T03:37:50.173Z,63.42
2018-09-17T03:38:50.146Z,63.32
2018-09-17T03:39:50.142Z,63.23
2018-09-17T03:40:50.191Z,63.32
2018-09-17T03:41:50.114Z,63.03
2018-09-17T03:42:50.104Z,63.32
2018-09-17T03:43:50.076Z,63.51
2018-09-17T03:44:50.073Z,63.32
2018-09-17T03:45:50.068Z,63.13
2018-09-17T03:46:50.076Z,63.19
2018-09-17T03:47:50.040Z,63.19
2018-09-17T03:48:50.102Z,63.10
2018-09-17T03:49:50.012Z,63.67
2018-09-17T03:50:49.992Z,63.86
2018-09-17T03:51:49.978Z,63.96
2018-09-17T03:52:49.975Z,63.86
2018-09-17T03:53:49.963Z,63.76
2018-09-17T03:54:49.976Z,63.76
2018-09-17T03:55:49.934Z,63.67
2018-09-17T03:56:49.922Z,63.86
2018-09-17T03:57:49.907Z,64.15
2018-09-17T03:58:49.893Z,64.15
2018-09-17T03:59:49.909Z,64.15
2018-09-17T04:00:49.876Z,63.76
2018-09-17T04:01:49.870Z,63.96
2018-09-17T04:02:49.840Z,63.86
2018-09-17T04:03:49.830Z,63.96
2018-09-17T04:04:49.858Z,63.67
2018-09-17T04:05:49.799Z,63.96
2018-09-17T04:06:49.788Z,63.76
2018-09-17T04:07:49.784Z,63.96
2018-09-17T04:08:49.772Z,63.96
2018-09-17T04:09:49.759Z,64.15
2018-09-17T04:10:49.739Z,64.15
2018-09-17T04:11:49.767Z,63.48
2018-09-17T04:12:49.718Z,63.67
2018-09-17T04:13:49.699Z,63.86
2018-09-17T04:14:49.682Z,63.39
2018-09-17T04:15:49.675Z,63.57
2018-09-17T04:16:49.701Z,63.67
2018-09-17T04:17:49.685Z,63.96
2018-09-17T04:18:49.638Z,63.96
2018-09-17T04:19:49.625Z,63.48
2018-09-17T04:20:49.617Z,63.76
2018-09-17T04:21:49.601Z,63.67
2018-09-17T04:22:49.621Z,63.86
2018-09-17T04:23:49.572Z,63.86
2018-09-17T04:24:49.553Z,63.86
2018-09-17T04:25:49.545Z,63.57
2018-09-17T04:26:49.541Z,63.39
2018-09-17T04:27:49.578Z,63.76
2018-09-17T04:28:49.519Z,63.67
2018-09-17T04:29:49.498Z,63.67
2018-09-17T04:30:49.490Z,63.86
2018-09-17T04:31:49.474Z,63.67
2018-09-17T04:32:49.461Z,64.15
2018-09-17T04:33:49.446Z,63.48
2018-09-17T04:34:49.429Z,63.86
2018-09-17T04:35:49.428Z,63.86
2018-09-17T04:36:49.408Z,63.67
2018-09-17T04:37:49.389Z,63.76
2018-09-17T04:38:49.405Z,63.86
2018-09-17T04:39:49.440Z,63.76
2018-09-17T04:40:49.346Z,63.96
2018-09-17T04:41:49.344Z,63.86
2018-09-17T04:42:49.333Z,63.86
2018-09-17T04:43:49.538Z,64.15
2018-09-17T04:44:49.306Z,63.76
2018-09-17T04:45:49.286Z,64.05
2018-09-17T04:46:49.275Z,63.86
2018-09-17T04:47:49.256Z,64.15
2018-09-17T04:48:49.262Z,63.39
2018-09-17T04:49:49.272Z,63.86
2018-09-17T04:50:49.224Z,63.96
2018-09-17T04:51:49.218Z,63.57
2018-09-17T04:52:49.211Z,63.96
2018-09-17T04:53:49.232Z,64.15
2018-09-17T04:54:49.175Z,63.86
2018-09-17T04:55:49.172Z,63.48
2018-09-17T04:56:49.158Z,63.67
2018-09-17T04:57:49.135Z,63.96
2018-09-17T04:58:49.159Z,63.86
2018-09-17T04:59:49.143Z,64.34
2018-09-17T05:00:49.100Z,64.34
2018-09-17T05:01:49.128Z,64.43
2018-09-17T05:02:49.062Z,64.34
2018-09-17T05:03:49.052Z,64.82
2018-09-17T05:04:49.051Z,65.01
2018-09-17T05:05:49.039Z,64.69
2018-09-17T05:06:49.012Z,64.59
2018-09-17T05:07:49.002Z,64.69
2018-09-17T05:08:48.993Z,64.22
2018-09-17T05:09:48.980Z,64.50
2018-09-17T05:10:49.005Z,64.31
2018-09-17T05:11:48.960Z,64.59
2018-09-17T05:12:48.950Z,64.50
2018-09-17T05:13:48.927Z,64.50
2018-09-17T05:14:48.916Z,64.50
2018-09-17T05:15:48.937Z,64.31
2018-09-17T05:16:48.895Z,64.50
2018-09-17T05:17:48.874Z,64.50
2018-09-17T05:18:48.861Z,64.50
2018-09-17T05:19:48.855Z,64.98
2018-09-17T05:20:48.933Z,64.50
2018-09-17T05:21:48.826Z,64.50
2018-09-17T05:22:49.083Z,64.59
2018-09-17T05:23:48.806Z,64.69
2018-09-17T05:24:48.788Z,64.62
2018-09-17T05:25:48.775Z,64.40
2018-09-17T05:26:48.812Z,64.50
2018-09-17T05:27:48.745Z,64.50
2018-09-17T05:28:48.741Z,64.43
2018-09-17T05:29:48.724Z,64.40
2018-09-17T05:30:48.708Z,64.31
2018-09-17T05:31:48.690Z,64.50
2018-09-17T05:32:48.701Z,64.34
2018-09-17T05:33:48.664Z,64.31
2018-09-17T05:34:48.661Z,64.22
2018-09-17T05:35:48.641Z,64.34
2018-09-17T05:36:48.633Z,64.53
2018-09-17T05:37:48.895Z,64.34
2018-09-17T05:38:48.608Z,64.15
2018-09-17T05:39:48.592Z,64.25
2018-09-17T05:40:48.583Z,64.53
2018-09-17T05:41:48.565Z,64.59
2018-09-17T05:42:48.548Z,64.34
2018-09-17T05:43:48.545Z,64.34
2018-09-17T05:44:48.528Z,64.34
2018-09-17T05:45:48.524Z,64.34
2018-09-17T05:46:48.503Z,64.05
2018-09-17T05:47:48.519Z,64.25
2018-09-17T05:48:48.475Z,64.25
2018-09-17T05:49:48.462Z,64.34
2018-09-17T05:50:48.478Z,64.25
2018-09-17T05:51:48.435Z,64.43
2018-09-17T05:52:48.427Z,64.34
2018-09-17T05:53:48.484Z,64.43
2018-09-17T05:54:48.403Z,64.82
2018-09-17T05:55:48.383Z,64.25
2018-09-17T05:56:48.363Z,64.53
2018-09-17T05:57:48.365Z,64.25
2018-09-17T05:58:48.345Z,64.25
2018-09-17T05:59:48.365Z,64.25
2018-09-17T06:00:48.325Z,64.53
2018-09-17T06:01:48.311Z,64.34
2018-09-17T06:02:48.289Z,64.53
2018-09-17T06:03:48.312Z,64.34
2018-09-17T06:04:48.275Z,64.25
2018-09-17T06:05:48.292Z,64.53
2018-09-17T06:06:48.281Z,64.53
2018-09-17T06:07:48.235Z,64.62
2018-09-17T06:08:48.214Z,64.53
2018-09-17T06:09:48.258Z,64.53
2018-09-17T06:10:48.194Z,64.62
2018-09-17T06:11:48.269Z,64.43
2018-09-17T06:12:48.169Z,65.01
2018-09-17T06:13:48.153Z,64.62
2018-09-17T06:14:48.143Z,64.53
2018-09-17T06:15:48.156Z,64.53
2018-09-17T06:16:48.117Z,64.34
2018-09-17T06:17:48.110Z,64.53
2018-09-17T06:18:48.145Z,64.62
2018-09-17T06:19:48.075Z,64.43
2018-09-17T06:20:48.062Z,64.43
2018-09-17T06:21:48.052Z,64.53
2018-09-17T06:22:48.037Z,64.82
2018-09-17T06:23:48.077Z,64.62
2018-09-17T06:24:48.010Z,64.53
2018-09-17T06:25:48.006Z,64.53
2018-09-17T06:26:47.983Z,64.72
2018-09-17T06:27:47.969Z,64.25
2018-09-17T06:28:48.059Z,64.25
2018-09-17T06:29:47.976Z,64.43
2018-09-17T06:30:47.941Z,64.72
2018-09-17T06:31:47.924Z,64.91
2018-09-17T06:32:47.911Z,64.72
2018-09-17T06:33:47.896Z,64.25
2018-09-17T06:34:47.913Z,64.34
2018-09-17T06:35:47.876Z,64.62
2018-09-17T06:36:47.856Z,64.62
2018-09-17T06:37:47.851Z,64.53
2018-09-17T06:38:47.838Z,64.62
2018-09-17T06:39:47.824Z,64.47
2018-09-17T06:40:47.817Z,64.95
2018-09-17T06:41:47.787Z,64.75
2018-09-17T06:42:47.776Z,64.56
2018-09-17T06:43:47.776Z,64.47
2018-09-17T06:44:47.809Z,64.28
2018-09-17T06:45:47.798Z,64.56
2018-09-17T06:46:47.740Z,64.75
2018-09-17T06:47:47.709Z,64.43
2018-09-17T06:48:47.708Z,64.34
2018-09-17T06:49:47.692Z,64.37
2018-09-17T06:50:47.674Z,64.53
2018-09-17T06:51:47.697Z,64.43
2018-09-17T06:52:47.652Z,64.75
2018-09-17T06:53:47.687Z,64.62
2018-09-17T06:54:47.625Z,64.53
2018-09-17T06:55:47.611Z,64.53
2018-09-17T06:56:47.654Z,64.43
2018-09-17T06:57:47.582Z,64.43
2018-09-17T06:58:47.591Z,64.34
2018-09-17T06:59:47.572Z,64.56
2018-09-17T07:00:47.554Z,64.47
2018-09-17T07:01:47.547Z,64.56
2018-09-17T07:02:47.540Z,64.75
2018-09-17T07:03:47.527Z,64.47
2018-09-17T07:04:47.512Z,64.56
2018-09-17T07:05:47.496Z,65.23
2018-09-17T07:06:47.477Z,64.66
2018-09-17T07:07:47.508Z,64.47
2018-09-17T07:08:47.446Z,64.28
2018-09-17T07:09:47.447Z,64.56
2018-09-17T07:10:47.434Z,64.66
2018-09-17T07:11:47.408Z,65.14
2018-09-17T07:12:47.452Z,65.23
2018-09-17T07:13:47.391Z,65.04
2018-09-17T07:14:47.383Z,64.66
2018-09-17T07:15:47.373Z,64.66
2018-09-17T07:16:47.361Z,64.66
2018-09-17T07:17:47.348Z,64.47
2018-09-17T07:18:47.359Z,64.37
2018-09-17T07:19:47.318Z,64.28
2018-09-17T07:20:47.306Z,64.75
2018-09-17T07:21:47.298Z,64.56
2018-09-17T07:22:47.314Z,64.95
2018-09-17T07:23:47.295Z,65.61
2018-09-17T07:24:47.258Z,65.42
2018-09-17T07:25:47.242Z,65.33
2018-09-17T07:26:47.230Z,65.04
2018-09-17T07:27:47.216Z,65.08
2018-09-17T07:28:47.270Z,64.98
2018-09-17T07:29:47.195Z,65.45
2018-09-17T07:30:47.187Z,66.70
2018-09-17T07:31:47.176Z,65.74
2018-09-17T07:32:47.164Z,65.74
2018-09-17T07:33:47.160Z,65.55
2018-09-17T07:34:47.140Z,65.45
2018-09-17T07:35:47.123Z,65.45
2018-09-17T07:36:47.106Z,65.36
2018-09-17T07:37:47.104Z,65.45
2018-09-17T07:38:47.092Z,65.17
2018-09-17T07:39:47.093Z,64.88
2018-09-17T07:40:47.085Z,64.98
2018-09-17T07:41:47.063Z,65.08
2018-09-17T07:42:47.077Z,65.68
2018-09-17T07:43:47.035Z,65.68
2018-09-17T07:44:47.012Z,65.97
2018-09-17T07:45:47.018Z,65.88
2018-09-17T07:46:46.998Z,65.49
2018-09-17T07:47:47.052Z,65.97
2018-09-17T07:48:46.984Z,66.58
2018-09-17T07:49:46.968Z,65.81
2018-09-17T07:50:46.990Z,65.91
2018-09-17T07:51:46.931Z,65.71
2018-09-17T07:52:46.973Z,65.33
2018-09-17T07:53:46.924Z,64.76
2018-09-17T07:54:46.905Z,64.95
2018-09-17T07:55:46.947Z,65.33
2018-09-17T07:56:46.881Z,65.33
2018-09-17T07:57:46.890Z,64.69
2018-09-17T07:58:46.867Z,64.85
2018-09-17T07:59:46.855Z,64.50
2018-09-17T08:00:46.851Z,64.69
2018-09-17T08:01:46.887Z,64.79
2018-09-17T08:02:46.817Z,64.59
2018-09-17T08:03:46.806Z,65.08
2018-09-17T08:04:46.801Z,64.31
2018-09-17T08:05:46.855Z,64.59
2018-09-17T08:06:46.776Z,64.69
2018-09-17T08:07:46.794Z,64.79
2018-09-17T08:08:46.778Z,64.66
2018-09-17T08:09:46.734Z,64.37
2018-09-17T08:10:46.743Z,64.66
2018-09-17T08:11:46.713Z,64.56
2018-09-17T08:12:46.713Z,64.66
2018-09-17T08:13:46.732Z,64.76
2018-09-17T08:14:46.688Z,64.66
2018-09-17T08:15:46.668Z,64.85
2018-09-17T08:16:46.664Z,64.56
2018-09-17T08:17:46.656Z,64.47
2018-09-17T08:18:46.910Z,64.89
2018-09-17T08:19:46.698Z,64.40
2018-09-17T08:20:46.630Z,64.79
2018-09-17T08:21:46.623Z,64.59
2018-09-17T08:22:46.600Z,64.50
2018-09-17T08:23:46.599Z,64.59
2018-09-17T08:24:46.586Z,64.31
2018-09-17T08:25:46.568Z,64.69
2018-09-17T08:26:46.559Z,64.69
2018-09-17T08:27:46.550Z,64.50
2018-09-17T08:28:46.540Z,64.98
2018-09-17T08:29:46.556Z,64.69
2018-09-17T08:30:46.509Z,64.79
2018-09-17T08:31:46.514Z,64.59
2018-09-17T08:32:46.492Z,64.89
2018-09-17T08:33:46.488Z,65.08
2018-09-17T08:34:46.488Z,64.43
2018-09-17T08:35:46.458Z,64.69
2018-09-17T08:36:46.476Z,64.59
2018-09-17T08:37:46.442Z,64.72
2018-09-17T08:38:46.427Z,64.34
2018-09-17T08:39:46.419Z,64.63
2018-09-17T08:40:46.408Z,65.20
2018-09-17T08:41:46.401Z,64.82
2018-09-17T08:42:46.394Z,64.53
2018-09-17T08:43:46.380Z,64.82
2018-09-17T08:44:46.363Z,64.72
2018-09-17T08:45:46.362Z,64.63
2018-09-17T08:46:46.387Z,64.56
2018-09-17T08:47:46.366Z,64.34
2018-09-17T08:48:46.360Z,64.47
2018-09-17T08:49:46.308Z,64.09
2018-09-17T08:50:46.299Z,64.47
2018-09-17T08:51:46.289Z,63.79
2018-09-17T08:52:46.372Z,63.99
2018-09-17T08:53:46.352Z,63.99
2018-09-17T08:54:46.270Z,63.99
2018-09-17T08:55:46.263Z,64.18
2018-09-17T08:56:46.239Z,64.28
2018-09-17T08:57:46.240Z,63.89
2018-09-17T08:58:46.228Z,63.89
2018-09-17T08:59:46.265Z,63.83
2018-09-17T09:00:46.205Z,64.02
2018-09-17T09:01:46.200Z,64.12
2018-09-17T09:02:46.195Z,64.02
2018-09-17T09:03:46.177Z,63.54
2018-09-17T09:04:46.170Z,63.45
2018-09-17T09:05:46.216Z,63.25
2018-09-17T09:06:46.149Z,63.16
2018-09-17T09:07:46.141Z,63.45
2018-09-17T09:08:46.135Z,63.19
2018-09-17T09:09:46.126Z,63.28
2018-09-17T09:10:46.111Z,63.28
2018-09-17T09:11:46.112Z,63.09
2018-09-17T09:12:46.095Z,63.12
2018-09-17T09:13:46.084Z,63.02
2018-09-17T09:14:46.073Z,61.97
2018-09-17T09:15:46.062Z,61.58
2018-09-17T09:16:46.064Z,61.87
2018-09-17T09:17:46.052Z,61.20
2018-09-17T09:18:46.035Z,61.20
2018-09-17T09:19:46.029Z,61.68
2018-09-17T09:20:46.021Z,61.87
2018-09-17T09:21:46.050Z,61.58
2018-09-17T09:22:45.996Z,61.58
2018-09-17T09:23:45.983Z,61.40
2018-09-17T09:24:45.982Z,61.49
2018-09-17T09:25:45.975Z,61.68
2018-09-17T09:26:45.973Z,61.87
2018-09-17T09:27:45.952Z,61.97
2018-09-17T09:28:46.138Z,61.87
2018-09-17T09:29:45.944Z,61.58
2018-09-17T09:30:45.957Z,60.82
2018-09-17T09:31:45.930Z,60.24
2018-09-17T09:32:45.909Z,60.72
2018-09-17T09:33:45.898Z,60.43
2018-09-17T09:34:45.904Z,61.43
2018-09-17T09:35:45.888Z,61.49
2018-09-17T09:36:45.879Z,61.14
2018-09-17T09:37:45.870Z,60.37
2018-09-17T09:38:45.899Z,60.85
2018-09-17T09:39:45.848Z,60.75
2018-09-17T09:40:45.842Z,60.56
2018-09-17T09:41:45.838Z,60.75
2018-09-17T09:42:45.824Z,60.56
2018-09-17T09:43:45.830Z,60.37
2018-09-17T09:44:45.811Z,60.46
2018-09-17T09:45:45.789Z,59.72
2018-09-17T09:46:45.795Z,59.53
2018-09-17T09:47:45.787Z,59.15
2018-09-17T09:48:45.771Z,59.53
2018-09-17T09:49:45.804Z,59.15
2018-09-17T09:50:45.755Z,58.86
2018-09-17T09:51:45.748Z,58.95
2018-09-17T09:52:45.791Z,58.37
2018-09-17T09:53:45.747Z,58.47
2018-09-17T09:54:45.726Z,58.60
2018-09-17T09:55:45.715Z,57.32
2018-09-17T09:56:45.708Z,57.64
2018-09-17T09:57:45.704Z,57.73
2018-09-17T09:58:45.762Z,57.45
2018-09-17T09:59:45.678Z,57.06
2018-09-17T10:00:45.676Z,56.20
2018-09-17T10:01:45.679Z,56.00
2018-09-17T10:02:45.649Z,56.00
2018-09-17T10:03:45.639Z,56.87
2018-09-17T10:04:45.672Z,56.51
2018-09-17T10:05:45.669Z,56.03
2018-09-17T10:06:45.629Z,55.65
2018-09-17T10:07:45.613Z,55.16
2018-09-17T10:08:45.598Z,55.07
2018-09-17T10:09:45.639Z,55.65
2018-09-17T10:10:45.596Z,54.49
2018-09-17T10:11:45.592Z,54.39
2018-09-17T10:12:45.569Z,55.45
2018-09-17T10:13:45.567Z,55.16
2018-09-17T10:14:45.625Z,54.68
2018-09-17T10:15:45.553Z,54.87
2018-09-17T10:16:45.550Z,54.58
2018-09-17T10:17:45.528Z,55.16
2018-09-17T10:18:45.533Z,55.09
2018-09-17T10:19:45.524Z,54.61
2018-09-17T10:20:45.546Z,54.52
2018-09-17T10:21:45.503Z,53.74
2018-09-17T10:22:45.492Z,52.97
2018-09-17T10:23:45.489Z,53.27
2018-09-17T10:24:45.529Z,53.74
2018-09-17T10:25:45.463Z,53.74
2018-09-17T10:26:45.476Z,53.36
2018-09-17T10:27:45.459Z,53.74
2018-09-17T10:28:45.450Z,53.84
2018-09-17T10:29:45.442Z,53.17
2018-09-17T10:30:45.460Z,53.17
2018-09-17T10:31:45.423Z,52.97
2018-09-17T10:32:45.447Z,54.13
2018-09-17T10:33:45.414Z,53.27
2018-09-17T10:34:45.403Z,53.17
2018-09-17T10:35:45.395Z,53.39
2018-09-17T10:36:45.391Z,53.07
2018-09-17T10:37:45.409Z,52.33
2018-09-17T10:38:45.375Z,52.13
2018-09-17T10:39:45.364Z,52.13
2018-09-17T10:40:45.355Z,52.04
2018-09-17T10:41:45.341Z,51.75
2018-09-17T10:42:45.362Z,51.56
2018-09-17T10:43:45.332Z,51.26
2018-09-17T10:44:45.311Z,50.98
2018-09-17T10:45:45.320Z,51.75
2018-09-17T10:46:45.301Z,52.04
2018-09-17T10:47:45.322Z,51.94
2018-09-17T10:48:45.282Z,51.26
2018-09-17T10:49:45.323Z,51.17
2018-09-17T10:50:45.279Z,51.26
2018-09-17T10:51:45.269Z,50.98
2018-09-17T10:52:45.259Z,51.26
2018-09-17T10:53:45.248Z,51.07
2018-09-17T10:54:45.274Z,51.36
2018-09-17T10:55:45.236Z,50.49
2018-09-17T10:56:45.234Z,50.30
2018-09-17T10:57:45.249Z,51.17
2018-09-17T10:58:45.218Z,49.63
2018-09-17T10:59:45.201Z,49.15
2018-09-17T11:00:45.202Z,50.30
2018-09-17T11:01:45.258Z,50.49
2018-09-17T11:02:45.175Z,51.20
2018-09-17T11:03:45.177Z,50.30
2018-09-17T11:04:45.163Z,50.30
2018-09-17T11:05:45.161Z,50.11
2018-09-17T11:06:45.161Z,49.94
2018-09-17T11:07:45.185Z,48.86
2018-09-17T11:08:45.139Z,49.15
2018-09-17T11:09:45.128Z,49.43
2018-09-17T11:10:45.129Z,49.75
2018-09-17T11:11:45.114Z,49.75
2018-09-17T11:12:45.139Z,49.43
2018-09-17T11:13:45.117Z,50.04
2018-09-17T11:14:45.125Z,50.52
2018-09-17T11:15:45.091Z,50.23
2018-09-17T11:16:45.080Z,51.29
2018-09-17T11:17:45.147Z,50.42
2018-09-17T11:18:45.097Z,50.90
2018-09-17T11:19:45.087Z,49.96
2018-09-17T11:20:45.050Z,50.04
2018-09-17T11:21:45.040Z,50.45
2018-09-17T11:22:45.037Z,50.32
2018-09-17T11:23:45.022Z,49.17
2018-09-17T11:24:45.076Z,49.10
2018-09-17T11:25:45.018Z,48.81
2018-09-17T11:26:45.019Z,48.23
2018-09-17T11:27:45.000Z,48.01
2018-09-17T11:28:44.994Z,48.40
2018-09-17T11:29:44.991Z,49.00
2018-09-17T11:30:45.005Z,48.13
2018-09-17T11:31:44.974Z,48.03
2018-09-17T11:32:44.970Z,48.42
2018-09-17T11:33:44.957Z,48.13
2018-09-17T11:34:44.980Z,46.97
2018-09-17T11:35:44.941Z,47.75
2018-09-17T11:36:44.965Z,46.97
2018-09-17T11:37:44.935Z,47.48
2018-09-17T11:38:44.908Z,47.87
2018-09-17T11:39:45.888Z,46.81
2018-09-17T11:40:44.934Z,47.38
2018-09-17T11:41:44.906Z,46.81
2018-09-17T11:42:44.900Z,47.38
2018-09-17T11:43:44.888Z,47.77
2018-09-17T11:44:44.879Z,48.25
2018-09-17T11:45:44.868Z,48.06
2018-09-17T11:46:44.860Z,46.90
2018-09-17T11:47:44.857Z,47.19
2018-09-17T11:48:44.852Z,47.29
2018-09-17T11:49:44.851Z,47.38
2018-09-17T11:50:44.837Z,47.48
2018-09-17T11:51:44.893Z,47.38
2018-09-17T11:52:44.811Z,47.29
2018-09-17T11:53:44.809Z,46.90
2018-09-17T11:54:44.803Z,47.31
2018-09-17T11:55:44.797Z,46.92
2018-09-17T11:56:44.798Z,47.22
2018-09-17T11:57:44.829Z,46.92
2018-09-17T11:58:44.772Z,46.64
2018-09-17T11:59:44.782Z,47.80
2018-09-17T12:00:44.763Z,48.08
2018-09-17T12:01:44.812Z,47.14
2018-09-17T12:02:44.811Z,45.81
2018-09-17T12:03:44.756Z,44.75
2018-09-17T12:04:44.746Z,45.35
2018-09-17T12:05:44.737Z,43.80
2018-09-17T12:06:44.735Z,44.09
2018-09-17T12:07:44.741Z,44.87
2018-09-17T12:08:44.730Z,43.32
2018-09-17T12:09:44.714Z,43.99
2018-09-17T12:10:44.717Z,43.99
2018-09-17T12:11:44.773Z,44.38
2018-09-17T12:12:44.703Z,43.51
2018-09-17T12:13:44.698Z,43.90
2018-09-17T12:14:44.700Z,44.38
2018-09-17T12:15:44.686Z,44.75
2018-09-17T12:16:44.679Z,44.17
2018-09-17T12:17:44.706Z,44.07
2018-09-17T12:18:44.671Z,44.17
2018-09-17T12:19:44.678Z,44.07
2018-09-17T12:20:44.668Z,44.75
2018-09-17T12:21:44.667Z,44.65
2018-09-17T12:22:44.658Z,44.07
2018-09-17T12:23:44.660Z,43.98
2018-09-17T12:24:44.643Z,43.30
2018-09-17T12:25:44.654Z,43.68
2018-09-17T12:26:44.637Z,43.98
2018-09-17T12:27:44.617Z,44.26
2018-09-17T12:28:44.626Z,44.46
2018-09-17T12:29:44.613Z,43.98
2018-09-17T12:30:44.606Z,43.98
2018-09-17T12:31:44.595Z,44.17
2018-09-17T12:32:44.599Z,44.17
2018-09-17T12:33:44.687Z,44.17
2018-09-17T12:34:44.591Z,43.88
2018-09-17T12:35:44.612Z,43.98
2018-09-17T12:36:44.569Z,44.84
2018-09-17T12:37:44.566Z,43.98
2018-09-17T12:38:44.567Z,43.59
2018-09-17T12:39:44.562Z,43.68
2018-09-17T12:40:44.589Z,43.68
2018-09-17T12:41:44.575Z,42.82
2018-09-17T12:42:44.539Z,43.98
2018-09-17T12:43:44.539Z,43.40
2018-09-17T12:44:44.545Z,42.55
2018-09-17T12:45:44.534Z,42.35
2018-09-17T12:46:44.547Z,43.51
2018-09-17T12:47:44.518Z,43.23
2018-09-17T12:48:44.509Z,41.89
2018-09-17T12:49:44.502Z,42.57
2018-09-17T12:50:44.505Z,42.86
2018-09-17T12:51:44.524Z,42.57
2018-09-17T12:52:44.514Z,42.37